sensor_id;sensor_type;location;lat;lon;timestamp;temperature;humidity
21944;DHT22;11136;48.778;9.126;2023-07-22T00:01:00;17.70;96.80
21944;DHT22;11136;48.778;9.126;2023-07-22T00:03:26;17.40;96.70
21944;DHT22;11136;48.778;9.126;2023-07-22T00:06:09;17.40;96.70
21944;DHT22;11136;48.778;9.126;2023-07-22T00:08:36;17.40;96.80
21944;DHT22;11136;48.778;9.126;2023-07-22T00:11:02;17.40;96.80
21944;DHT22;11136;48.778;9.126;2023-07-22T00:13:28;17.40;96.80
21944;DHT22;11136;48.778;9.126;2023-07-22T00:15:54;17.30;96.80
21944;DHT22;11136;48.778;9.126;2023-07-22T00:18:20;17.30;96.90
21944;DHT22;11136;48.778;9.126;2023-07-22T00:20:46;17.30;97.00
21944;DHT22;11136;48.778;9.126;2023-07-22T00:23:12;17.30;97.10
21944;DHT22;11136;48.778;9.126;2023-07-22T00:25:37;17.30;97.20
21944;DHT22;11136;48.778;9.126;2023-07-22T00:28:03;17.20;97.10
21944;DHT22;11136;48.778;9.126;2023-07-22T00:30:31;17.20;97.10
21944;DHT22;11136;48.778;9.126;2023-07-22T00:32:57;17.10;97.10
21944;DHT22;11136;48.778;9.126;2023-07-22T00:35:22;17.00;97.30
21944;DHT22;11136;48.778;9.126;2023-07-22T00:37:48;17.00;97.40
21944;DHT22;11136;48.778;9.126;2023-07-22T00:40:14;17.00;97.50
21944;DHT22;11136;48.778;9.126;2023-07-22T00:42:41;17.00;97.50
21944;DHT22;11136;48.778;9.126;2023-07-22T00:45:07;17.00;97.50
21944;DHT22;11136;48.778;9.126;2023-07-22T00:47:36;17.00;97.50
21944;DHT22;11136;48.778;9.126;2023-07-22T00:50:03;16.90;97.40
21944;DHT22;11136;48.778;9.126;2023-07-22T00:52:29;16.80;97.30
21944;DHT22;11136;48.778;9.126;2023-07-22T00:54:55;16.80;97.50
21944;DHT22;11136;48.778;9.126;2023-07-22T00:57:22;16.70;97.60
21944;DHT22;11136;48.778;9.126;2023-07-22T00:59:48;16.70;97.80
21944;DHT22;11136;48.778;9.126;2023-07-22T01:02:14;16.70;97.90
21944;DHT22;11136;48.778;9.126;2023-07-22T01:04:40;16.70;98.00
21944;DHT22;11136;48.778;9.126;2023-07-22T01:07:06;16.60;98.00
21944;DHT22;11136;48.778;9.126;2023-07-22T01:09:36;17.00;98.10
21944;DHT22;11136;48.778;9.126;2023-07-22T01:12:02;16.60;98.00
21944;DHT22;11136;48.778;9.126;2023-07-22T01:14:28;16.70;98.00
21944;DHT22;11136;48.778;9.126;2023-07-22T01:16:54;16.60;97.90
21944;DHT22;11136;48.778;9.126;2023-07-22T01:19:20;16.90;98.00
21944;DHT22;11136;48.778;9.126;2023-07-22T01:21:47;16.60;98.00
21944;DHT22;11136;48.778;9.126;2023-07-22T01:24:13;16.70;98.10
21944;DHT22;11136;48.778;9.126;2023-07-22T01:26:39;16.60;98.10
21944;DHT22;11136;48.778;9.126;2023-07-22T01:29:05;16.50;98.10
21944;DHT22;11136;48.778;9.126;2023-07-22T01:31:33;16.50;98.10
21944;DHT22;11136;48.778;9.126;2023-07-22T01:33:59;16.50;98.10
21944;DHT22;11136;48.778;9.126;2023-07-22T01:36:25;16.50;98.10
21944;DHT22;11136;48.778;9.126;2023-07-22T01:38:50;16.50;98.10
21944;DHT22;11136;48.778;9.126;2023-07-22T01:41:16;16.50;98.10
21944;DHT22;11136;48.778;9.126;2023-07-22T01:43:42;16.50;98.20
21944;DHT22;11136;48.778;9.126;2023-07-22T01:46:07;16.50;98.20
21944;DHT22;11136;48.778;9.126;2023-07-22T01:48:33;16.50;98.20
21944;DHT22;11136;48.778;9.126;2023-07-22T01:50:58;16.50;98.20
21944;DHT22;11136;48.778;9.126;2023-07-22T01:53:24;16.40;98.20
21944;DHT22;11136;48.778;9.126;2023-07-22T01:55:49;16.40;98.20
21944;DHT22;11136;48.778;9.126;2023-07-22T01:58:15;16.40;98.20
21944;DHT22;11136;48.778;9.126;2023-07-22T02:00:41;16.40;98.30
21944;DHT22;11136;48.778;9.126;2023-07-22T02:03:06;16.40;98.30
21944;DHT22;11136;48.778;9.126;2023-07-22T02:05:32;16.40;98.30
21944;DHT22;11136;48.778;9.126;2023-07-22T02:07:57;16.30;98.30
21944;DHT22;11136;48.778;9.126;2023-07-22T02:10:23;16.30;98.30
21944;DHT22;11136;48.778;9.126;2023-07-22T02:12:49;16.30;98.30
21944;DHT22;11136;48.778;9.126;2023-07-22T02:15:14;16.30;98.30
21944;DHT22;11136;48.778;9.126;2023-07-22T02:17:41;16.30;98.30
21944;DHT22;11136;48.778;9.126;2023-07-22T02:20:07;16.20;98.30
21944;DHT22;11136;48.778;9.126;2023-07-22T02:22:34;16.20;98.30
21944;DHT22;11136;48.778;9.126;2023-07-22T02:25:00;16.20;98.40
21944;DHT22;11136;48.778;9.126;2023-07-22T02:27:25;16.20;98.40
21944;DHT22;11136;48.778;9.126;2023-07-22T02:29:52;16.20;98.40
21944;DHT22;11136;48.778;9.126;2023-07-22T02:32:17;16.20;98.40
21944;DHT22;11136;48.778;9.126;2023-07-22T02:34:44;16.20;98.40
21944;DHT22;11136;48.778;9.126;2023-07-22T02:37:10;16.10;98.30
21944;DHT22;11136;48.778;9.126;2023-07-22T02:39:35;16.10;98.40
21944;DHT22;11136;48.778;9.126;2023-07-22T02:42:01;16.10;98.40
21944;DHT22;11136;48.778;9.126;2023-07-22T02:44:26;16.10;98.40
21944;DHT22;11136;48.778;9.126;2023-07-22T02:46:52;16.10;98.40
21944;DHT22;11136;48.778;9.126;2023-07-22T02:49:18;16.00;98.40
21944;DHT22;11136;48.778;9.126;2023-07-22T02:51:43;16.00;98.50
21944;DHT22;11136;48.778;9.126;2023-07-22T02:54:09;16.00;98.50
21944;DHT22;11136;48.778;9.126;2023-07-22T02:56:35;16.00;98.50
21944;DHT22;11136;48.778;9.126;2023-07-22T02:59:00;16.00;98.60
21944;DHT22;11136;48.778;9.126;2023-07-22T03:01:26;15.90;98.60
21944;DHT22;11136;48.778;9.126;2023-07-22T03:03:51;15.90;98.60
21944;DHT22;11136;48.778;9.126;2023-07-22T03:06:17;15.90;98.70
21944;DHT22;11136;48.778;9.126;2023-07-22T03:08:43;15.90;98.70
21944;DHT22;11136;48.778;9.126;2023-07-22T03:11:08;15.90;98.80
21944;DHT22;11136;48.778;9.126;2023-07-22T03:13:34;15.90;98.90
21944;DHT22;11136;48.778;9.126;2023-07-22T03:16:01;15.90;99.00
21944;DHT22;11136;48.778;9.126;2023-07-22T03:18:30;15.90;99.10
21944;DHT22;11136;48.778;9.126;2023-07-22T03:20:57;15.90;99.20
21944;DHT22;11136;48.778;9.126;2023-07-22T03:23:22;15.90;99.30
21944;DHT22;11136;48.778;9.126;2023-07-22T03:25:48;15.80;99.30
21944;DHT22;11136;48.778;9.126;2023-07-22T03:28:16;15.80;99.40
21944;DHT22;11136;48.778;9.126;2023-07-22T03:30:42;15.90;99.50
21944;DHT22;11136;48.778;9.126;2023-07-22T03:33:08;15.80;99.50
21944;DHT22;11136;48.778;9.126;2023-07-22T03:35:34;15.80;99.60
21944;DHT22;11136;48.778;9.126;2023-07-22T03:38:00;15.80;99.70
21944;DHT22;11136;48.778;9.126;2023-07-22T03:40:26;15.80;99.80
21944;DHT22;11136;48.778;9.126;2023-07-22T03:42:55;15.80;99.80
21944;DHT22;11136;48.778;9.126;2023-07-22T03:45:21;15.80;99.90
21944;DHT22;11136;48.778;9.126;2023-07-22T03:47:52;15.80;99.90
21944;DHT22;11136;48.778;9.126;2023-07-22T03:50:18;15.80;99.90
21944;DHT22;11136;48.778;9.126;2023-07-22T03:52:44;15.80;99.90
21944;DHT22;11136;48.778;9.126;2023-07-22T03:55:09;15.80;99.90
21944;DHT22;11136;48.778;9.126;2023-07-22T03:57:37;15.80;99.90
21944;DHT22;11136;48.778;9.126;2023-07-22T04:00:04;15.80;99.90
21944;DHT22;11136;48.778;9.126;2023-07-22T04:02:30;15.80;99.90
21944;DHT22;11136;48.778;9.126;2023-07-22T04:04:56;15.80;99.90
21944;DHT22;11136;48.778;9.126;2023-07-22T04:07:22;15.80;99.90
21944;DHT22;11136;48.778;9.126;2023-07-22T04:09:48;15.80;99.90
21944;DHT22;11136;48.778;9.126;2023-07-22T04:12:14;15.80;99.90
21944;DHT22;11136;48.778;9.126;2023-07-22T04:14:40;16.10;99.90
21944;DHT22;11136;48.778;9.126;2023-07-22T04:17:06;15.60;99.90
21944;DHT22;11136;48.778;9.126;2023-07-22T04:19:32;15.80;99.90
21944;DHT22;11136;48.778;9.126;2023-07-22T04:21:57;15.90;99.90
21944;DHT22;11136;48.778;9.126;2023-07-22T04:24:23;15.80;99.90
21944;DHT22;11136;48.778;9.126;2023-07-22T04:26:51;15.80;99.90
21944;DHT22;11136;48.778;9.126;2023-07-22T04:29:17;15.80;99.90
21944;DHT22;11136;48.778;9.126;2023-07-22T04:31:42;15.80;99.90
21944;DHT22;11136;48.778;9.126;2023-07-22T04:34:08;15.80;99.90
21944;DHT22;11136;48.778;9.126;2023-07-22T04:36:34;15.80;99.90
21944;DHT22;11136;48.778;9.126;2023-07-22T04:39:00;15.80;99.90
21944;DHT22;11136;48.778;9.126;2023-07-22T04:41:26;15.80;99.90
21944;DHT22;11136;48.778;9.126;2023-07-22T04:43:51;15.80;99.90
21944;DHT22;11136;48.778;9.126;2023-07-22T04:46:19;15.80;99.90
21944;DHT22;11136;48.778;9.126;2023-07-22T04:48:45;15.80;99.90
21944;DHT22;11136;48.778;9.126;2023-07-22T04:51:10;15.80;99.90
21944;DHT22;11136;48.778;9.126;2023-07-22T04:53:36;15.80;99.90
21944;DHT22;11136;48.778;9.126;2023-07-22T04:56:01;15.90;99.90
21944;DHT22;11136;48.778;9.126;2023-07-22T04:58:28;15.90;99.90
21944;DHT22;11136;48.778;9.126;2023-07-22T05:00:53;16.00;99.90
21944;DHT22;11136;48.778;9.126;2023-07-22T05:03:19;15.90;99.90
21944;DHT22;11136;48.778;9.126;2023-07-22T05:05:44;15.90;99.90
21944;DHT22;11136;48.778;9.126;2023-07-22T05:08:10;15.90;99.90
21944;DHT22;11136;48.778;9.126;2023-07-22T05:10:39;16.00;99.90
21944;DHT22;11136;48.778;9.126;2023-07-22T05:13:05;15.90;99.90
21944;DHT22;11136;48.778;9.126;2023-07-22T05:15:30;15.90;99.90
21944;DHT22;11136;48.778;9.126;2023-07-22T05:17:56;16.00;99.90
21944;DHT22;11136;48.778;9.126;2023-07-22T05:20:21;16.00;99.90
21944;DHT22;11136;48.778;9.126;2023-07-22T05:22:48;16.20;99.90
21944;DHT22;11136;48.778;9.126;2023-07-22T05:25:14;16.00;99.90
21944;DHT22;11136;48.778;9.126;2023-07-22T05:27:40;16.00;99.90
21944;DHT22;11136;48.778;9.126;2023-07-22T05:30:06;16.00;99.90
21944;DHT22;11136;48.778;9.126;2023-07-22T05:32:32;16.10;99.90
21944;DHT22;11136;48.778;9.126;2023-07-22T05:34:58;16.10;99.90
21944;DHT22;11136;48.778;9.126;2023-07-22T05:37:24;16.10;99.90
21944;DHT22;11136;48.778;9.126;2023-07-22T05:39:50;16.20;99.90
21944;DHT22;11136;48.778;9.126;2023-07-22T05:42:17;16.20;99.90
21944;DHT22;11136;48.778;9.126;2023-07-22T05:44:44;16.30;99.90
21944;DHT22;11136;48.778;9.126;2023-07-22T05:47:10;16.30;99.90
21944;DHT22;11136;48.778;9.126;2023-07-22T05:49:35;16.40;99.90
21944;DHT22;11136;48.778;9.126;2023-07-22T05:52:01;16.40;99.90
21944;DHT22;11136;48.778;9.126;2023-07-22T05:54:27;16.50;99.90
21944;DHT22;11136;48.778;9.126;2023-07-22T05:56:52;16.50;99.90
21944;DHT22;11136;48.778;9.126;2023-07-22T05:59:18;16.60;99.90
21944;DHT22;11136;48.778;9.126;2023-07-22T06:01:43;16.60;99.90
21944;DHT22;11136;48.778;9.126;2023-07-22T06:04:09;16.70;99.90
21944;DHT22;11136;48.778;9.126;2023-07-22T06:06:35;16.70;99.90
21944;DHT22;11136;48.778;9.126;2023-07-22T06:09:01;16.80;99.90
21944;DHT22;11136;48.778;9.126;2023-07-22T06:11:27;16.90;99.90
21944;DHT22;11136;48.778;9.126;2023-07-22T06:13:54;16.90;99.90
21944;DHT22;11136;48.778;9.126;2023-07-22T06:16:19;17.00;99.90
21944;DHT22;11136;48.778;9.126;2023-07-22T06:18:46;17.10;99.90
21944;DHT22;11136;48.778;9.126;2023-07-22T06:21:11;17.10;99.90
21944;DHT22;11136;48.778;9.126;2023-07-22T06:23:37;17.10;99.90
21944;DHT22;11136;48.778;9.126;2023-07-22T06:26:02;17.20;99.90
21944;DHT22;11136;48.778;9.126;2023-07-22T06:28:28;17.30;99.90
21944;DHT22;11136;48.778;9.126;2023-07-22T06:30:54;17.30;99.90
21944;DHT22;11136;48.778;9.126;2023-07-22T06:33:19;17.40;99.90
21944;DHT22;11136;48.778;9.126;2023-07-22T06:35:45;17.50;99.90
21944;DHT22;11136;48.778;9.126;2023-07-22T06:38:11;17.50;99.90
21944;DHT22;11136;48.778;9.126;2023-07-22T06:40:36;17.60;99.90
21944;DHT22;11136;48.778;9.126;2023-07-22T06:43:02;17.60;99.90
21944;DHT22;11136;48.778;9.126;2023-07-22T06:45:28;17.70;99.90
21944;DHT22;11136;48.778;9.126;2023-07-22T06:47:53;17.70;99.90
21944;DHT22;11136;48.778;9.126;2023-07-22T06:50:19;17.80;99.90
21944;DHT22;11136;48.778;9.126;2023-07-22T06:52:44;17.90;99.90
21944;DHT22;11136;48.778;9.126;2023-07-22T06:55:10;17.90;99.90
21944;DHT22;11136;48.778;9.126;2023-07-22T06:57:36;18.00;99.90
21944;DHT22;11136;48.778;9.126;2023-07-22T07:00:04;18.00;99.90
21944;DHT22;11136;48.778;9.126;2023-07-22T07:02:30;18.10;99.90
21944;DHT22;11136;48.778;9.126;2023-07-22T07:04:56;18.10;99.90
21944;DHT22;11136;48.778;9.126;2023-07-22T07:07:21;18.20;99.90
21944;DHT22;11136;48.778;9.126;2023-07-22T07:09:47;18.20;99.90
21944;DHT22;11136;48.778;9.126;2023-07-22T07:12:13;18.20;99.90
21944;DHT22;11136;48.778;9.126;2023-07-22T07:14:38;18.30;99.90
21944;DHT22;11136;48.778;9.126;2023-07-22T07:17:04;18.30;99.90
21944;DHT22;11136;48.778;9.126;2023-07-22T07:19:29;18.30;99.90
21944;DHT22;11136;48.778;9.126;2023-07-22T07:21:55;18.30;99.80
21944;DHT22;11136;48.778;9.126;2023-07-22T07:24:20;18.30;99.70
21944;DHT22;11136;48.778;9.126;2023-07-22T07:26:46;18.30;99.60
21944;DHT22;11136;48.778;9.126;2023-07-22T07:29:12;18.40;99.50
21944;DHT22;11136;48.778;9.126;2023-07-22T07:31:38;18.40;99.20
21944;DHT22;11136;48.778;9.126;2023-07-22T07:34:04;18.50;98.90
21944;DHT22;11136;48.778;9.126;2023-07-22T07:36:29;18.50;98.60
21944;DHT22;11136;48.778;9.126;2023-07-22T07:38:55;18.60;98.40
21944;DHT22;11136;48.778;9.126;2023-07-22T07:41:21;18.60;98.30
21944;DHT22;11136;48.778;9.126;2023-07-22T07:43:47;18.80;98.00
21944;DHT22;11136;48.778;9.126;2023-07-22T07:48:38;18.80;97.60
21944;DHT22;11136;48.778;9.126;2023-07-22T07:51:03;18.80;97.60
21944;DHT22;11136;48.778;9.126;2023-07-22T07:53:29;18.80;97.40
21944;DHT22;11136;48.778;9.126;2023-07-22T07:55:54;18.90;96.60
21944;DHT22;11136;48.778;9.126;2023-07-22T07:58:20;18.90;96.40
21944;DHT22;11136;48.778;9.126;2023-07-22T08:00:46;18.90;96.70
21944;DHT22;11136;48.778;9.126;2023-07-22T08:03:11;19.20;96.20
21944;DHT22;11136;48.778;9.126;2023-07-22T08:05:37;19.00;96.00
21944;DHT22;11136;48.778;9.126;2023-07-22T08:08:02;19.10;95.90
21944;DHT22;11136;48.778;9.126;2023-07-22T08:10:28;19.10;96.10
21944;DHT22;11136;48.778;9.126;2023-07-22T08:12:55;19.20;95.90
21944;DHT22;11136;48.778;9.126;2023-07-22T08:15:20;19.30;95.70
21944;DHT22;11136;48.778;9.126;2023-07-22T08:17:46;19.40;95.90
21944;DHT22;11136;48.778;9.126;2023-07-22T08:20:12;19.40;95.50
21944;DHT22;11136;48.778;9.126;2023-07-22T08:22:38;19.40;95.20
21944;DHT22;11136;48.778;9.126;2023-07-22T08:25:03;19.50;95.30
21944;DHT22;11136;48.778;9.126;2023-07-22T08:27:29;19.60;95.20
21944;DHT22;11136;48.778;9.126;2023-07-22T08:29:55;19.60;95.00
21944;DHT22;11136;48.778;9.126;2023-07-22T08:32:20;19.70;94.60
21944;DHT22;11136;48.778;9.126;2023-07-22T08:34:46;19.80;93.70
21944;DHT22;11136;48.778;9.126;2023-07-22T08:37:11;19.80;93.00
21944;DHT22;11136;48.778;9.126;2023-07-22T08:39:37;19.90;92.90
21944;DHT22;11136;48.778;9.126;2023-07-22T08:42:04;20.10;91.90
21944;DHT22;11136;48.778;9.126;2023-07-22T08:44:32;20.30;91.80
21944;DHT22;11136;48.778;9.126;2023-07-22T08:47:01;20.60;91.00
21944;DHT22;11136;48.778;9.126;2023-07-22T08:49:29;20.80;91.60
21944;DHT22;11136;48.778;9.126;2023-07-22T08:51:56;21.00;91.40
21944;DHT22;11136;48.778;9.126;2023-07-22T08:54:23;21.20;91.10
21944;DHT22;11136;48.778;9.126;2023-07-22T08:56:49;21.40;90.70
21944;DHT22;11136;48.778;9.126;2023-07-22T08:59:17;21.60;89.50
21944;DHT22;11136;48.778;9.126;2023-07-22T09:01:43;21.70;85.50
21944;DHT22;11136;48.778;9.126;2023-07-22T09:04:09;21.70;83.40
21944;DHT22;11136;48.778;9.126;2023-07-22T09:06:35;21.60;83.40
21944;DHT22;11136;48.778;9.126;2023-07-22T09:09:02;21.50;83.20
21944;DHT22;11136;48.778;9.126;2023-07-22T09:11:32;21.50;83.20
21944;DHT22;11136;48.778;9.126;2023-07-22T09:13:58;21.40;84.00
21944;DHT22;11136;48.778;9.126;2023-07-22T09:16:24;21.30;83.20
21944;DHT22;11136;48.778;9.126;2023-07-22T09:18:55;21.20;82.80
21944;DHT22;11136;48.778;9.126;2023-07-22T09:21:20;21.20;82.30
21944;DHT22;11136;48.778;9.126;2023-07-22T09:23:46;21.10;82.20
21944;DHT22;11136;48.778;9.126;2023-07-22T09:26:14;21.10;82.60
21944;DHT22;11136;48.778;9.126;2023-07-22T09:28:56;21.10;83.00
21944;DHT22;11136;48.778;9.126;2023-07-22T09:31:24;21.00;82.80
21944;DHT22;11136;48.778;9.126;2023-07-22T09:33:50;21.00;82.00
21944;DHT22;11136;48.778;9.126;2023-07-22T09:36:16;21.10;81.50
21944;DHT22;11136;48.778;9.126;2023-07-22T09:38:42;21.10;81.70
21944;DHT22;11136;48.778;9.126;2023-07-22T09:41:08;21.10;81.80
21944;DHT22;11136;48.778;9.126;2023-07-22T09:43:38;21.20;81.80
21944;DHT22;11136;48.778;9.126;2023-07-22T09:46:11;21.20;82.40
21944;DHT22;11136;48.778;9.126;2023-07-22T09:48:44;21.30;81.80
21944;DHT22;11136;48.778;9.126;2023-07-22T09:51:14;21.30;81.60
21944;DHT22;11136;48.778;9.126;2023-07-22T09:53:47;21.40;80.80
21944;DHT22;11136;48.778;9.126;2023-07-22T09:56:13;21.40;80.50
21944;DHT22;11136;48.778;9.126;2023-07-22T09:58:40;21.40;80.40
21944;DHT22;11136;48.778;9.126;2023-07-22T10:01:07;21.50;80.20
21944;DHT22;11136;48.778;9.126;2023-07-22T10:03:33;21.50;80.40
21944;DHT22;11136;48.778;9.126;2023-07-22T10:06:03;21.80;79.80
21944;DHT22;11136;48.778;9.126;2023-07-22T10:08:34;21.70;77.60
21944;DHT22;11136;48.778;9.126;2023-07-22T10:11:03;21.70;77.40
21944;DHT22;11136;48.778;9.126;2023-07-22T10:13:31;21.70;76.50
21944;DHT22;11136;48.778;9.126;2023-07-22T10:15:57;21.80;76.30
21944;DHT22;11136;48.778;9.126;2023-07-22T10:18:24;21.80;75.00
21944;DHT22;11136;48.778;9.126;2023-07-22T10:20:50;21.90;75.10
21944;DHT22;11136;48.778;9.126;2023-07-22T10:23:17;21.80;74.60
21944;DHT22;11136;48.778;9.126;2023-07-22T10:25:44;22.10;75.20
21944;DHT22;11136;48.778;9.126;2023-07-22T10:28:11;22.20;75.30
21944;DHT22;11136;48.778;9.126;2023-07-22T10:30:37;22.00;75.60
21944;DHT22;11136;48.778;9.126;2023-07-22T10:33:03;22.10;75.20
21944;DHT22;11136;48.778;9.126;2023-07-22T10:38:14;22.30;75.00
21944;DHT22;11136;48.778;9.126;2023-07-22T10:40:54;22.40;72.60
21944;DHT22;11136;48.778;9.126;2023-07-22T10:43:33;22.50;72.30
21944;DHT22;11136;48.778;9.126;2023-07-22T10:46:07;22.60;73.00
21944;DHT22;11136;48.778;9.126;2023-07-22T10:48:35;22.70;74.10
21944;DHT22;11136;48.778;9.126;2023-07-22T10:51:09;22.80;72.60
21944;DHT22;11136;48.778;9.126;2023-07-22T10:53:41;22.90;72.20
21944;DHT22;11136;48.778;9.126;2023-07-22T10:56:14;23.10;72.80
21944;DHT22;11136;48.778;9.126;2023-07-22T11:12:08;23.30;70.20
21944;DHT22;11136;48.778;9.126;2023-07-22T11:14:38;23.30;70.70
21944;DHT22;11136;48.778;9.126;2023-07-22T11:17:05;23.20;70.60
21944;DHT22;11136;48.778;9.126;2023-07-22T11:19:32;23.10;70.80
21944;DHT22;11136;48.778;9.126;2023-07-22T11:21:58;23.00;71.70
21944;DHT22;11136;48.778;9.126;2023-07-22T11:24:24;23.00;70.90
21944;DHT22;11136;48.778;9.126;2023-07-22T11:26:52;22.90;71.20
21944;DHT22;11136;48.778;9.126;2023-07-22T11:29:18;22.90;71.80
21944;DHT22;11136;48.778;9.126;2023-07-22T11:31:45;22.80;71.80
21944;DHT22;11136;48.778;9.126;2023-07-22T11:34:16;22.90;72.20
21944;DHT22;11136;48.778;9.126;2023-07-22T11:36:42;23.00;72.30
21944;DHT22;11136;48.778;9.126;2023-07-22T11:39:10;23.10;71.90
21944;DHT22;11136;48.778;9.126;2023-07-22T11:41:40;23.30;72.50
21944;DHT22;11136;48.778;9.126;2023-07-22T11:44:14;23.20;71.00
21944;DHT22;11136;48.778;9.126;2023-07-22T11:47:02;23.30;70.20
21944;DHT22;11136;48.778;9.126;2023-07-22T11:49:40;23.40;70.70
21944;DHT22;11136;48.778;9.126;2023-07-22T11:52:11;23.50;71.00
21944;DHT22;11136;48.778;9.126;2023-07-22T11:54:41;23.70;70.60
21944;DHT22;11136;48.778;9.126;2023-07-22T11:57:22;23.80;70.90
21944;DHT22;11136;48.778;9.126;2023-07-22T11:59:48;23.90;69.60
21944;DHT22;11136;48.778;9.126;2023-07-22T12:02:19;23.90;70.00
21944;DHT22;11136;48.778;9.126;2023-07-22T12:04:53;23.90;69.30
21944;DHT22;11136;48.778;9.126;2023-07-22T12:07:26;23.90;68.40
21944;DHT22;11136;48.778;9.126;2023-07-22T12:09:53;23.90;68.20
21944;DHT22;11136;48.778;9.126;2023-07-22T12:12:19;24.00;68.20
21944;DHT22;11136;48.778;9.126;2023-07-22T12:14:44;24.00;67.80
21944;DHT22;11136;48.778;9.126;2023-07-22T12:17:10;24.00;67.40
21944;DHT22;11136;48.778;9.126;2023-07-22T12:19:36;24.10;67.20
21944;DHT22;11136;48.778;9.126;2023-07-22T12:22:01;24.20;66.60
21944;DHT22;11136;48.778;9.126;2023-07-22T12:24:28;24.30;66.80
21944;DHT22;11136;48.778;9.126;2023-07-22T12:26:54;24.30;67.00
21944;DHT22;11136;48.778;9.126;2023-07-22T12:29:19;24.60;67.20
21944;DHT22;11136;48.778;9.126;2023-07-22T12:31:45;24.60;66.20
21944;DHT22;11136;48.778;9.126;2023-07-22T12:34:11;24.70;65.50
21944;DHT22;11136;48.778;9.126;2023-07-22T12:36:36;24.90;64.30
21944;DHT22;11136;48.778;9.126;2023-07-22T12:39:02;25.00;64.00
21944;DHT22;11136;48.778;9.126;2023-07-22T12:41:28;25.00;62.20
21944;DHT22;11136;48.778;9.126;2023-07-22T12:43:54;25.00;62.00
21944;DHT22;11136;48.778;9.126;2023-07-22T12:46:19;25.00;62.30
21944;DHT22;11136;48.778;9.126;2023-07-22T12:48:45;25.10;61.80
21944;DHT22;11136;48.778;9.126;2023-07-22T12:51:11;25.10;61.30
21944;DHT22;11136;48.778;9.126;2023-07-22T12:53:36;25.10;61.30
21944;DHT22;11136;48.778;9.126;2023-07-22T12:56:02;25.00;61.30
21944;DHT22;11136;48.778;9.126;2023-07-22T12:58:28;25.00;61.20
21944;DHT22;11136;48.778;9.126;2023-07-22T13:01:00;25.00;61.20
21944;DHT22;11136;48.778;9.126;2023-07-22T13:03:25;25.00;61.70
21944;DHT22;11136;48.778;9.126;2023-07-22T13:05:51;25.20;61.90
21944;DHT22;11136;48.778;9.126;2023-07-22T13:08:17;25.20;61.80
21944;DHT22;11136;48.778;9.126;2023-07-22T13:10:43;25.10;61.30
21944;DHT22;11136;48.778;9.126;2023-07-22T13:13:10;25.10;61.00
21944;DHT22;11136;48.778;9.126;2023-07-22T13:15:36;25.30;60.80
21944;DHT22;11136;48.778;9.126;2023-07-22T13:18:02;25.20;60.50
21944;DHT22;11136;48.778;9.126;2023-07-22T13:20:28;25.20;59.90
21944;DHT22;11136;48.778;9.126;2023-07-22T13:22:55;25.30;59.90
21944;DHT22;11136;48.778;9.126;2023-07-22T13:25:20;25.30;60.40
21944;DHT22;11136;48.778;9.126;2023-07-22T13:27:46;25.50;60.40
21944;DHT22;11136;48.778;9.126;2023-07-22T13:30:12;25.60;60.40
21944;DHT22;11136;48.778;9.126;2023-07-22T13:32:39;25.60;60.10
21944;DHT22;11136;48.778;9.126;2023-07-22T13:35:06;25.60;59.50
21944;DHT22;11136;48.778;9.126;2023-07-22T13:37:31;25.60;59.50
21944;DHT22;11136;48.778;9.126;2023-07-22T13:39:57;25.60;59.60
21944;DHT22;11136;48.778;9.126;2023-07-22T13:42:23;25.60;59.80
21944;DHT22;11136;48.778;9.126;2023-07-22T13:44:49;25.60;59.80
21944;DHT22;11136;48.778;9.126;2023-07-22T13:47:15;25.60;59.80
21944;DHT22;11136;48.778;9.126;2023-07-22T13:49:41;25.60;59.80
21944;DHT22;11136;48.778;9.126;2023-07-22T13:52:06;25.60;59.30
21944;DHT22;11136;48.778;9.126;2023-07-22T13:54:32;25.60;58.60
21944;DHT22;11136;48.778;9.126;2023-07-22T13:56:57;25.60;59.20
21944;DHT22;11136;48.778;9.126;2023-07-22T13:59:23;25.80;59.00
21944;DHT22;11136;48.778;9.126;2023-07-22T14:01:48;25.80;58.70
21944;DHT22;11136;48.778;9.126;2023-07-22T14:04:14;25.80;58.30
21944;DHT22;11136;48.778;9.126;2023-07-22T14:06:40;25.80;58.20
21944;DHT22;11136;48.778;9.126;2023-07-22T14:09:05;25.80;58.40
21944;DHT22;11136;48.778;9.126;2023-07-22T14:11:31;25.80;58.50
21944;DHT22;11136;48.778;9.126;2023-07-22T14:13:56;25.70;58.70
21944;DHT22;11136;48.778;9.126;2023-07-22T14:16:22;25.70;58.10
21944;DHT22;11136;48.778;9.126;2023-07-22T14:18:48;25.70;57.90
21944;DHT22;11136;48.778;9.126;2023-07-22T14:21:13;25.70;57.70
21944;DHT22;11136;48.778;9.126;2023-07-22T14:23:39;25.70;58.20
21944;DHT22;11136;48.778;9.126;2023-07-22T14:26:04;25.80;58.30
21944;DHT22;11136;48.778;9.126;2023-07-22T14:28:30;25.80;58.30
21944;DHT22;11136;48.778;9.126;2023-07-22T14:30:55;25.80;58.50
21944;DHT22;11136;48.778;9.126;2023-07-22T14:33:21;26.10;58.70
21944;DHT22;11136;48.778;9.126;2023-07-22T14:35:46;26.10;58.40
21944;DHT22;11136;48.778;9.126;2023-07-22T14:38:12;26.10;58.40
21944;DHT22;11136;48.778;9.126;2023-07-22T14:40:38;26.20;59.60
21944;DHT22;11136;48.778;9.126;2023-07-22T14:43:03;26.40;58.40
21944;DHT22;11136;48.778;9.126;2023-07-22T14:45:29;26.60;57.70
21944;DHT22;11136;48.778;9.126;2023-07-22T14:47:55;26.70;57.30
21944;DHT22;11136;48.778;9.126;2023-07-22T14:50:20;26.70;57.10
21944;DHT22;11136;48.778;9.126;2023-07-22T14:52:46;26.90;56.80
21944;DHT22;11136;48.778;9.126;2023-07-22T14:55:12;26.70;56.30
21944;DHT22;11136;48.778;9.126;2023-07-22T14:57:37;26.60;55.70
21944;DHT22;11136;48.778;9.126;2023-07-22T15:00:03;26.60;55.70
21944;DHT22;11136;48.778;9.126;2023-07-22T15:02:29;26.50;55.90
21944;DHT22;11136;48.778;9.126;2023-07-22T15:04:54;26.40;56.00
21944;DHT22;11136;48.778;9.126;2023-07-22T15:07:21;26.30;55.90
21944;DHT22;11136;48.778;9.126;2023-07-22T15:09:47;26.20;56.00
21944;DHT22;11136;48.778;9.126;2023-07-22T15:12:12;26.00;56.00
21944;DHT22;11136;48.778;9.126;2023-07-22T15:14:38;25.90;56.50
21944;DHT22;11136;48.778;9.126;2023-07-22T15:17:04;25.60;56.20
21944;DHT22;11136;48.778;9.126;2023-07-22T15:19:30;25.80;56.50
21944;DHT22;11136;48.778;9.126;2023-07-22T15:21:56;25.70;57.70
21944;DHT22;11136;48.778;9.126;2023-07-22T15:24:22;25.60;57.20
21944;DHT22;11136;48.778;9.126;2023-07-22T15:26:47;25.60;57.50
21944;DHT22;11136;48.778;9.126;2023-07-22T15:29:13;25.60;57.60
21944;DHT22;11136;48.778;9.126;2023-07-22T15:31:38;25.60;57.40
21944;DHT22;11136;48.778;9.126;2023-07-22T15:34:04;25.60;57.70
21944;DHT22;11136;48.778;9.126;2023-07-22T15:36:30;25.60;57.80
21944;DHT22;11136;48.778;9.126;2023-07-22T15:38:56;25.60;57.70
21944;DHT22;11136;48.778;9.126;2023-07-22T15:41:22;25.60;57.80
21944;DHT22;11136;48.778;9.126;2023-07-22T15:43:47;25.60;57.80